Time;durP1;ratioP1;P1;durP2;ratioP2;P2;SDS_P1;SDS_P2;PMS_P1;PMS_P2;Temp;Humidity;BMP_temperature;BMP_pressure;BME280_temperature;BME280_humidity;BME280_pressure;Samples;Min_cycle;Max_cycle;Signal;HPM_P1;HPM_P2
2023/07/08 00:00:49;;;;;;;2.42;2.22;;;;;;;20.29;58.18;101744.38;5018451;28;20104;-83
2023/07/08 00:03:15;;;;;;;3.95;2.20;;;;;;;20.26;58.55;101741.06;5018614;28;20051;-82
2023/07/08 00:05:41;;;;;;;2.53;2.42;;;;;;;20.22;58.69;101744.91;5001212;28;20327;-82
2023/07/08 00:08:19;;;;;;;2.50;2.10;;;;;;;20.17;58.89;101739.03;4999680;28;20326;-82
2023/07/08 00:10:46;;;;;;;3.00;2.30;;;;;;;20.12;59.04;101734.88;5015974;28;20244;-82
2023/07/08 00:13:11;;;;;;;2.83;2.45;;;;;;;20.13;58.78;101738.38;4999890;28;20026;-81
2023/07/08 00:15:38;;;;;;;2.72;2.45;;;;;;;20.11;58.86;101734.97;5018323;28;20040;-82
2023/07/08 00:18:12;;;;;;;2.95;2.65;;;;;;;20.07;58.84;101731.69;5017646;28;20029;-82
2023/07/08 00:20:40;;;;;;;8.07;2.38;;;;;;;20.07;59.07;101734.34;5018113;28;20214;-82
2023/07/08 00:23:05;;;;;;;2.83;2.47;;;;;;;20.03;59.14;101727.53;5017658;28;20037;-81
2023/07/08 00:25:32;;;;;;;2.70;2.50;;;;;;;20.01;59.17;101718.81;5017556;28;20100;-82
2023/07/08 00:27:58;;;;;;;3.65;2.47;;;;;;;20.02;59.07;101725.81;5017702;28;20048;-81
2023/07/08 00:30:29;;;;;;;2.38;2.10;;;;;;;20.00;59.12;101735.69;5017578;28;20300;-81
2023/07/08 00:32:56;;;;;;;3.17;2.10;;;;;;;19.97;59.28;101727.91;5017408;28;20045;-82
2023/07/08 00:35:35;;;;;;;2.55;2.35;;;;;;;19.94;59.24;101731.63;5004034;28;20034;-82
2023/07/08 00:38:01;;;;;;;2.28;2.05;;;;;;;19.93;59.56;101737.91;5017191;28;20041;-82
2023/07/08 00:40:32;;;;;;;2.78;2.30;;;;;;;19.92;59.11;101728.22;5017706;28;20037;-82
2023/07/08 00:43:00;;;;;;;2.30;2.10;;;;;;;19.92;59.27;101727.38;5017207;28;20032;-82
2023/07/08 00:45:35;;;;;;;5.35;2.38;;;;;;;19.90;59.16;101719.50;5016846;28;20026;-82
2023/07/08 00:48:07;;;;;;;2.85;2.00;;;;;;;19.88;59.42;101718.78;5017482;28;20048;-83
2023/07/08 00:50:32;;;;;;;1.90;1.80;;;;;;;19.87;59.41;101716.22;5017960;28;20222;-81
2023/07/08 00:53:24;;;;;;;3.70;2.47;;;;;;;19.83;59.51;101712.91;5019795;28;20052;-81
2023/07/08 00:55:54;;;;;;;2.60;2.40;;;;;;;19.82;59.59;101710.34;5021157;28;20034;-82
2023/07/08 00:58:21;;;;;;;2.67;2.47;;;;;;;19.78;59.92;101717.66;5016734;28;20034;-81
2023/07/08 01:00:49;;;;;;;2.40;2.20;;;;;;;19.74;60.11;101714.34;5016813;28;20041;-82
2023/07/08 01:03:16;;;;;;;2.53;2.30;;;;;;;19.67;60.21;101706.84;5017749;28;20210;-82
2023/07/08 01:05:43;;;;;;;2.75;2.30;;;;;;;19.60;60.75;101711.69;5022689;28;20371;-81
2023/07/08 01:08:09;;;;;;;5.05;2.70;;;;;;;19.51;61.81;101709.66;5016580;28;20038;-82
2023/07/08 01:10:47;;;;;;;2.63;2.42;;;;;;;19.44;61.70;101708.34;4996417;28;20044;-82
2023/07/08 01:13:14;;;;;;;2.72;2.47;;;;;;;19.44;61.97;101701.22;4988363;28;20029;-81
2023/07/08 01:15:43;;;;;;;2.63;2.40;;;;;;;19.44;61.83;101703.88;5020685;28;20214;-82
2023/07/08 01:18:11;;;;;;;2.78;2.53;;;;;;;19.45;61.69;101696.78;5019572;28;20462;-83
2023/07/08 01:20:37;;;;;;;2.60;2.20;;;;;;;19.47;61.55;101686.91;5023136;28;20032;-82
2023/07/08 01:23:04;;;;;;;2.47;2.28;;;;;;;19.46;61.34;101701.97;5018234;28;20100;-83
2023/07/08 01:25:31;;;;;;;2.85;2.55;;;;;;;19.46;61.32;101696.66;5023352;28;20041;-83
2023/07/08 01:27:57;;;;;;;3.65;2.17;;;;;;;19.42;61.35;101697.81;5016753;28;20064;-82
2023/07/08 01:30:23;;;;;;;2.80;2.55;;;;;;;19.41;61.30;101698.78;4997298;28;20038;-82
2023/07/08 01:32:55;;;;;;;2.80;2.55;;;;;;;19.41;61.11;101696.13;4996707;28;20124;-83
2023/07/08 01:35:21;;;;;;;2.35;2.10;;;;;;;19.42;61.05;101696.97;5032195;28;20075;-82
2023/07/08 01:38:09;;;;;;;2.75;2.38;;;;;;;19.38;61.26;101691.84;5036282;28;20037;-82
2023/07/08 01:40:36;;;;;;;6.50;2.37;;;;;;;19.35;61.34;101692.03;5013029;28;20340;-81
2023/07/08 01:43:03;;;;;;;2.72;2.30;;;;;;;19.34;61.45;101692.16;5016359;28;20029;-83
2023/07/08 01:45:36;;;;;;;2.83;2.20;;;;;;;19.32;61.38;101688.75;5016197;28;20033;-82
2023/07/08 01:48:22;;;;;;;2.65;2.45;;;;;;;19.29;61.74;101689.78;5016452;28;20045;-83
2023/07/08 01:50:53;;;;;;;3.35;2.35;;;;;;;19.26;61.95;101681.16;5016438;28;20152;-82
2023/07/08 01:53:22;;;;;;;2.53;2.33;;;;;;;19.21;62.03;101684.13;5015575;28;20081;-82
2023/07/08 01:55:48;;;;;;;4.35;2.63;;;;;;;19.18;62.42;101681.66;5015695;28;20048;-82
2023/07/08 01:58:13;;;;;;;4.13;2.58;;;;;;;19.12;62.52;101672.28;5015962;28;20037;-82
2023/07/08 02:00:39;;;;;;;2.80;2.55;;;;;;;19.08;62.83;101675.22;5015829;28;20056;-81
2023/07/08 02:03:04;;;;;;;2.45;2.25;;;;;;;19.02;63.01;101667.66;5015580;28;20038;-82
2023/07/08 02:05:29;;;;;;;2.50;2.30;;;;;;;18.99;63.03;101673.97;4999191;28;20451;-82
2023/07/08 02:07:56;;;;;;;2.75;2.55;;;;;;;18.99;63.17;101669.53;4998079;28;20040;-82
2023/07/08 02:10:21;;;;;;;3.10;2.33;;;;;;;18.97;63.23;101671.44;5015818;28;20348;-82
2023/07/08 02:12:46;;;;;;;3.03;2.38;;;;;;;18.94;63.15;101663.66;5016174;28;20022;-83
2023/07/08 02:15:12;;;;;;;3.13;2.45;;;;;;;18.93;63.28;101655.81;5014901;28;20037;-80
2023/07/08 02:17:37;;;;;;;4.13;2.45;;;;;;;18.89;63.58;101654.28;5015941;28;20045;-80
2023/07/08 02:20:03;;;;;;;4.20;2.70;;;;;;;18.85;63.68;101656.28;5015136;28;21161;-80
2023/07/08 02:22:28;;;;;;;2.65;2.45;;;;;;;18.82;63.69;101660.94;5015640;28;20036;-80
2023/07/08 02:24:54;;;;;;;4.28;2.72;;;;;;;18.78;63.95;101653.13;5014936;28;20040;-80
2023/07/08 02:27:19;;;;;;;2.42;2.22;;;;;;;18.76;64.19;101656.84;4994921;28;20037;-80
2023/07/08 02:29:45;;;;;;;2.95;2.20;;;;;;;18.68;64.51;101653.78;5008107;28;20048;-80
2023/07/08 02:32:10;;;;;;;2.63;2.42;;;;;;;18.63;64.43;101650.56;4998110;28;20105;-80
2023/07/08 02:34:36;;;;;;;2.80;2.22;;;;;;;18.61;64.84;101650.69;5017734;28;20029;-77
2023/07/08 02:37:02;;;;;;;2.55;2.35;;;;;;;18.58;64.72;101656.16;5014957;28;20101;-77
2023/07/08 02:39:28;;;;;;;3.33;2.25;;;;;;;18.48;66.09;101655.88;4994245;28;20023;-77
2023/07/08 02:41:53;;;;;;;3.95;2.60;;;;;;;18.38;66.97;101649.44;5014888;28;20076;-77
2023/07/08 02:44:18;;;;;;;3.45;3.00;;;;;;;18.27;67.88;101636.81;4997131;28;20029;-77
2023/07/08 02:46:44;;;;;;;3.13;2.83;;;;;;;18.18;67.84;101642.69;5015091;28;20053;-77
2023/07/08 02:49:09;;;;;;;2.58;2.38;;;;;;;18.10;68.41;101640.50;5013925;28;20033;-77
2023/07/08 02:51:35;;;;;;;2.90;2.70;;;;;;;18.08;68.13;101634.44;5015092;28;20056;-77
2023/07/08 02:54:00;;;;;;;2.75;2.55;;;;;;;18.03;68.42;101637.34;5014324;28;20052;-77
2023/07/08 02:56:26;;;;;;;3.20;2.90;;;;;;;17.99;68.61;101637.59;5014723;28;20110;-77
2023/07/08 02:58:52;;;;;;;3.10;2.90;;;;;;;17.91;69.71;101643.38;5015040;28;20073;-77
2023/07/08 03:01:17;;;;;;;3.10;2.90;;;;;;;17.81;70.94;101653.63;5014997;28;20041;-77
2023/07/08 03:03:46;;;;;;;11.88;3.10;;;;;;;17.69;72.56;101651.69;5019353;28;20037;-77
2023/07/08 03:06:13;;;;;;;3.20;2.90;;;;;;;17.57;73.46;101642.66;5019128;28;20045;-77
2023/07/08 03:08:38;;;;;;;2.95;2.65;;;;;;;17.44;73.59;101633.69;5018720;28;20387;-77
2023/07/08 03:11:05;;;;;;;6.75;2.97;;;;;;;17.35;73.82;101640.34;5018518;28;20041;-76
2023/07/08 03:13:32;;;;;;;3.10;2.80;;;;;;;17.32;73.42;101639.69;5018374;28;20289;-76
2023/07/08 03:15:59;;;;;;;3.55;3.05;;;;;;;17.31;73.09;101651.22;5020932;28;20030;-77
2023/07/08 03:18:26;;;;;;;3.50;3.20;;;;;;;17.30;73.14;101649.50;4997382;28;20110;-77
2023/07/08 03:20:53;;;;;;;4.00;3.30;;;;;;;17.30;73.24;101644.22;5017103;28;20045;-77
2023/07/08 03:23:18;;;;;;;3.15;2.95;;;;;;;17.27;74.38;101647.91;5018451;28;20301;-77
2023/07/08 03:25:44;;;;;;;2.95;2.75;;;;;;;17.19;76.14;101653.63;5018279;28;20042;-77
2023/07/08 03:28:13;;;;;;;3.45;3.15;;;;;;;17.09;76.52;101655.06;5018133;28;20049;-77
2023/07/08 03:30:39;;;;;;;3.50;3.20;;;;;;;16.98;76.86;101657.44;5000072;28;20098;-77
2023/07/08 03:33:04;;;;;;;4.97;3.42;;;;;;;16.87;78.13;101658.03;5018068;28;20370;-77
2023/07/08 03:35:30;;;;;;;3.53;3.10;;;;;;;16.78;78.90;101658.50;5023827;28;20057;-77
2023/07/08 03:37:55;;;;;;;6.05;3.55;;;;;;;16.68;79.10;101661.63;5017724;28;20050;-77
2023/07/08 03:40:21;;;;;;;3.75;3.45;;;;;;;16.60;80.02;101658.53;5017865;28;20349;-77
2023/07/08 03:42:46;;;;;;;3.28;3.05;;;;;;;16.53;80.72;101654.50;5018351;28;20050;-77
2023/07/08 03:45:11;;;;;;;4.10;3.63;;;;;;;16.48;81.13;101656.53;5000151;28;20029;-77
2023/07/08 03:47:37;;;;;;;3.80;3.45;;;;;;;16.40;81.88;101656.94;5018631;28;20052;-77
2023/07/08 03:50:02;;;;;;;5.93;3.88;;;;;;;16.35;82.05;101653.66;5017434;28;20044;-76
2023/07/08 03:52:28;;;;;;;3.88;3.45;;;;;;;16.36;81.58;101657.19;5018178;28;20352;-77
2023/07/08 03:54:53;;;;;;;4.50;3.33;;;;;;;16.38;81.57;101652.69;5017507;28;20344;-77
2023/07/08 03:57:19;;;;;;;3.60;3.30;;;;;;;16.40;82.04;101659.56;5017792;28;20034;-77
2023/07/08 03:59:44;;;;;;;3.83;3.50;;;;;;;16.43;82.19;101661.22;5000339;28;20302;-77
2023/07/08 04:02:13;;;;;;;4.93;3.25;;;;;;;16.43;81.81;101656.78;4999672;28;20053;-77
2023/07/08 04:04:38;;;;;;;3.95;3.45;;;;;;;16.43;81.96;101659.44;5029523;28;20060;-77
2023/07/08 04:07:04;;;;;;;4.10;3.50;;;;;;;16.43;81.78;101655.94;5036297;28;20132;-76
2023/07/08 04:09:30;;;;;;;3.80;3.50;;;;;;;16.44;81.53;101663.75;5017296;28;20081;-76
2023/07/08 04:11:55;;;;;;;3.88;3.47;;;;;;;16.46;82.12;101661.03;5017041;28;20037;-76
2023/07/08 04:14:21;;;;;;;4.20;3.80;;;;;;;16.46;82.24;101668.97;5017089;28;20033;-76
2023/07/08 04:16:58;;;;;;;3.28;3.08;;;;;;;16.44;82.94;101665.56;5016597;28;20350;-76
2023/07/08 04:19:24;;;;;;;3.88;3.55;;;;;;;16.41;83.49;101671.88;5017732;28;20264;-76
2023/07/08 04:21:50;;;;;;;4.40;4.00;;;;;;;16.42;83.78;101667.44;4999726;28;20041;-76
2023/07/08 04:24:17;;;;;;;5.38;3.65;;;;;;;16.43;83.61;101670.00;5017115;28;20038;-76
2023/07/08 04:26:46;;;;;;;4.65;4.20;;;;;;;16.42;83.68;101670.06;5017000;28;20096;-76
2023/07/08 04:29:19;;;;;;;3.95;3.50;;;;;;;16.38;84.13;101666.75;5017113;28;20097;-76
2023/07/08 04:31:45;;;;;;;4.93;3.70;;;;;;;16.33;84.06;101665.28;5017608;28;20045;-76
2023/07/08 04:34:10;;;;;;;3.92;3.63;;;;;;;16.30;84.52;101661.00;4997312;28;20030;-76
2023/07/08 04:36:37;;;;;;;5.00;4.05;;;;;;;16.28;85.10;101665.50;4999279;28;20048;-76
2023/07/08 04:39:04;;;;;;;4.22;3.92;;;;;;;16.26;85.37;101657.66;5016159;28;20037;-76
2023/07/08 04:41:30;;;;;;;4.25;3.67;;;;;;;16.27;86.09;101666.44;5016798;28;20348;-76
2023/07/08 04:43:57;;;;;;;4.05;3.70;;;;;;;16.27;85.91;101666.44;5016407;28;20139;-76
2023/07/08 04:46:38;;;;;;;5.38;4.13;;;;;;;16.28;86.00;101670.78;5016980;28;20332;-76
2023/07/08 04:49:11;;;;;;;3.85;3.55;;;;;;;16.31;85.92;101683.84;5016526;28;20368;-76
2023/07/08 04:51:38;;;;;;;4.22;3.90;;;;;;;16.33;86.05;101676.69;4996537;28;20034;-76
2023/07/08 04:54:04;;;;;;;6.00;3.72;;;;;;;16.34;86.12;101675.78;5016389;28;20037;-77
2023/07/08 04:56:44;;;;;;;3.88;3.53;;;;;;;16.40;85.44;101669.31;5016395;28;20104;-77
2023/07/08 04:59:13;;;;;;;3.85;3.55;;;;;;;16.52;84.15;101663.38;5015445;28;20052;-77
2023/07/08 05:01:38;;;;;;;4.85;3.40;;;;;;;16.67;82.39;101662.56;5016356;28;20049;-77
2023/07/08 05:04:05;;;;;;;3.92;3.50;;;;;;;16.82;81.08;101660.88;5022622;28;20039;-77
2023/07/08 05:06:31;;;;;;;3.65;3.35;;;;;;;16.93;79.97;101662.97;5016295;28;20037;-77
2023/07/08 05:08:58;;;;;;;4.95;3.42;;;;;;;17.07;79.15;101672.81;5013198;28;20435;-77
2023/07/08 05:11:24;;;;;;;6.55;3.53;;;;;;;17.16;78.74;101672.31;5015751;28;20038;-77
2023/07/08 05:13:49;;;;;;;4.32;3.10;;;;;;;17.24;77.95;101664.78;5015919;28;20044;-77
2023/07/08 05:16:15;;;;;;;5.05;3.47;;;;;;;17.33;77.51;101662.56;5015580;28;20040;-77
2023/07/08 05:18:40;;;;;;;4.15;3.30;;;;;;;17.38;77.05;101661.38;5016212;28;20033;-77
2023/07/08 05:21:06;;;;;;;4.03;3.40;;;;;;;17.45;76.77;101662.75;5015596;28;20068;-77
2023/07/08 05:23:31;;;;;;;3.33;3.13;;;;;;;17.50;76.72;101659.84;5016414;28;20076;-77
2023/07/08 05:26:00;;;;;;;3.63;3.20;;;;;;;17.55;76.41;101663.06;5015863;28;20038;-77
2023/07/08 05:28:26;;;;;;;8.52;3.35;;;;;;;17.60;76.25;101655.72;5015480;28;20030;-77
2023/07/08 05:30:57;;;;;;;5.13;3.55;;;;;;;17.68;75.50;101654.41;5015812;28;20337;-77
2023/07/08 05:33:24;;;;;;;3.35;3.05;;;;;;;17.73;74.88;101652.34;4998223;28;20300;-77
2023/07/08 05:35:50;;;;;;;5.15;3.40;;;;;;;17.79;74.77;101652.00;5022887;28;20110;-77
2023/07/08 05:38:15;;;;;;;4.07;3.30;;;;;;;17.84;74.64;101663.19;4998189;28;20133;-77
2023/07/08 05:40:41;;;;;;;3.47;3.20;;;;;;;17.90;73.98;101662.00;4991735;28;20041;-77
2023/07/08 05:43:06;;;;;;;4.38;3.13;;;;;;;17.93;74.17;101665.31;5006264;28;20272;-77
2023/07/08 05:45:32;;;;;;;17.80;4.68;;;;;;;17.98;74.09;101649.16;5016113;28;20104;-82
2023/07/08 05:47:57;;;;;;;9.32;3.53;;;;;;;18.02;74.32;101638.28;5016084;28;20037;-82
2023/07/08 05:50:23;;;;;;;4.57;3.05;;;;;;;18.06;74.15;101644.25;5010109;28;20413;-83
2023/07/08 05:52:48;;;;;;;4.43;3.42;;;;;;;18.11;73.97;101649.28;5002703;28;20041;-83
2023/07/08 05:55:14;;;;;;;12.18;3.50;;;;;;;18.14;73.97;101652.63;5011388;28;20494;-83
2023/07/08 05:57:39;;;;;;;5.00;3.38;;;;;;;18.17;73.63;101644.50;5001804;28;20087;-83
2023/07/08 06:00:06;;;;;;;7.85;3.83;;;;;;;18.22;73.34;101654.78;5016241;28;20068;-83
2023/07/08 06:02:31;;;;;;;5.82;3.22;;;;;;;18.26;73.42;101650.16;5015448;28;20088;-83
2023/07/08 06:04:56;;;;;;;5.82;3.40;;;;;;;18.28;72.60;101646.50;5028371;28;20450;-83
2023/07/08 06:07:22;;;;;;;14.90;3.50;;;;;;;18.31;73.08;101653.41;5015762;28;20037;-83
2023/07/08 06:09:47;;;;;;;9.10;3.45;;;;;;;18.33;73.89;101649.69;5015923;28;20038;-83
2023/07/08 06:12:13;;;;;;;4.15;3.65;;;;;;;18.34;73.91;101655.88;5016193;28;20037;-83
2023/07/08 06:14:39;;;;;;;11.40;3.53;;;;;;;18.34;73.67;101650.56;5015673;28;20044;-83
2023/07/08 06:17:04;;;;;;;3.70;3.40;;;;;;;18.37;73.40;101645.06;5008526;28;20340;-83
2023/07/08 06:19:30;;;;;;;5.13;3.05;;;;;;;18.41;73.52;101643.94;5016207;28;20337;-82
2023/07/08 06:21:55;;;;;;;7.18;3.47;;;;;;;18.48;72.76;101639.09;5015840;28;20033;-82
2023/07/08 06:24:20;;;;;;;4.53;3.47;;;;;;;18.51;72.84;101642.41;5015974;28;20336;-83
2023/07/08 06:26:46;;;;;;;12.20;3.80;;;;;;;18.53;73.16;101645.81;5013251;28;20354;-83
2023/07/08 06:29:12;;;;;;;10.43;3.20;;;;;;;18.56;72.46;101644.81;5013426;28;20042;-82
2023/07/08 06:31:37;;;;;;;14.85;3.38;;;;;;;18.59;72.74;101645.47;5012062;28;20053;-83
2023/07/08 06:34:04;;;;;;;3.95;3.35;;;;;;;18.64;72.96;101644.31;5017318;28;20033;-83
2023/07/08 06:36:29;;;;;;;8.35;3.60;;;;;;;18.67;72.90;101642.34;5013058;28;20053;-82
2023/07/08 06:38:55;;;;;;;6.15;3.45;;;;;;;18.73;72.95;101646.41;5005414;28;20076;-83
2023/07/08 06:41:20;;;;;;;5.00;3.47;;;;;;;18.78;72.68;101657.59;5008063;28;20057;-83
2023/07/08 06:43:46;;;;;;;5.93;3.47;;;;;;;18.84;72.30;101653.72;5012183;28;20318;-83
2023/07/08 06:46:11;;;;;;;6.30;3.65;;;;;;;18.91;72.41;101655.88;5012134;28;20045;-83
2023/07/08 06:48:37;;;;;;;5.45;3.08;;;;;;;18.93;72.46;101648.69;5014916;28;20030;-83
2023/07/08 06:51:02;;;;;;;3.90;3.47;;;;;;;18.98;72.18;101646.59;5012849;28;20026;-83
2023/07/08 06:53:28;;;;;;;4.45;3.38;;;;;;;19.02;72.54;101644.59;4995531;28;20029;-83
2023/07/08 06:55:53;;;;;;;5.53;3.38;;;;;;;19.10;71.95;101650.28;5012109;28;20036;-83
2023/07/08 06:58:18;;;;;;;4.43;3.22;;;;;;;19.16;72.22;101646.38;4998002;28;20096;-83
2023/07/08 07:00:44;;;;;;;5.57;3.50;;;;;;;19.22;72.21;101643.31;5017523;28;20182;-83
2023/07/08 07:03:10;;;;;;;5.72;3.80;;;;;;;19.28;72.34;101647.38;5012207;28;20026;-83
2023/07/08 07:05:36;;;;;;;9.23;3.72;;;;;;;19.33;71.99;101651.44;4993994;28;20082;-83
2023/07/08 07:08:02;;;;;;;8.73;3.55;;;;;;;19.43;71.69;101648.19;5011268;28;20232;-84
2023/07/08 07:10:27;;;;;;;8.52;3.53;;;;;;;19.50;71.09;101644.16;5012558;28;20049;-83
2023/07/08 07:12:53;;;;;;;5.00;3.45;;;;;;;19.59;70.98;101632.09;5011208;28;20048;-83
2023/07/08 07:15:18;;;;;;;10.77;3.65;;;;;;;19.65;70.87;101637.03;4995175;28;20022;-83
2023/07/08 07:17:43;;;;;;;7.07;3.50;;;;;;;19.70;70.34;101637.53;5016336;28;20049;-83
2023/07/08 07:20:09;;;;;;;7.63;3.80;;;;;;;19.76;70.09;101631.88;5020290;28;20025;-83
2023/07/08 07:22:35;;;;;;;6.43;3.90;;;;;;;19.83;70.60;101634.94;5013753;28;20458;-84
2023/07/08 07:25:00;;;;;;;7.13;3.90;;;;;;;19.86;70.80;101637.41;5019665;28;20091;-83
2023/07/08 07:27:26;;;;;;;3.70;3.30;;;;;;;19.87;70.76;101629.34;5012250;28;20340;-83
2023/07/08 07:29:52;;;;;;;7.60;3.92;;;;;;;19.93;70.94;101636.03;4995900;28;20033;-84
2023/07/08 07:32:18;;;;;;;7.18;3.78;;;;;;;20.00;70.91;101629.34;5009328;28;20044;-83
2023/07/08 07:34:46;;;;;;;10.88;4.20;;;;;;;20.08;71.06;101632.34;5012468;28;20045;-84
2023/07/08 07:37:13;;;;;;;5.47;4.30;;;;;;;20.16;70.50;101628.31;5015604;28;20348;-84
2023/07/08 07:39:39;;;;;;;7.28;3.40;;;;;;;20.22;70.15;101612.78;5007736;28;20325;-84
2023/07/08 07:42:05;;;;;;;3.90;3.60;;;;;;;20.28;70.47;101620.34;5017228;28;20040;-84
2023/07/08 07:44:31;;;;;;;7.43;3.90;;;;;;;20.37;69.61;101618.81;5015422;28;20037;-83
2023/07/08 07:46:56;;;;;;;5.72;3.78;;;;;;;20.46;69.61;101610.19;5010116;28;20044;-84
2023/07/08 07:49:21;;;;;;;7.55;3.72;;;;;;;20.53;69.62;101611.47;5009098;28;20061;-84
2023/07/08 07:51:48;;;;;;;11.85;4.05;;;;;;;20.61;69.87;101615.44;5010443;28;20065;-84
2023/07/08 07:54:14;;;;;;;5.93;3.95;;;;;;;20.68;69.88;101627.34;5016150;28;20038;-84
2023/07/08 07:56:39;;;;;;;15.25;4.10;;;;;;;20.75;70.19;101631.28;5017569;28;20037;-84
2023/07/08 07:59:05;;;;;;;6.45;3.63;;;;;;;20.82;69.89;101637.03;5006078;28;20221;-84
2023/07/08 08:01:30;;;;;;;4.32;3.22;;;;;;;20.87;69.20;101642.88;5017908;28;20075;-84
2023/07/08 08:03:56;;;;;;;5.07;3.63;;;;;;;20.90;69.13;101638.19;5013709;28;20358;-84
2023/07/08 08:06:21;;;;;;;7.03;4.07;;;;;;;20.94;69.20;101644.13;5012734;28;20038;-84
2023/07/08 08:08:47;;;;;;;6.38;3.85;;;;;;;20.99;68.87;101643.78;5018286;28;20040;-84
2023/07/08 08:11:13;;;;;;;6.22;3.97;;;;;;;21.04;69.10;101647.81;5030314;28;20284;-84
2023/07/08 08:13:38;;;;;;;6.20;4.07;;;;;;;21.08;69.19;101645.78;5031432;28;20026;-85
2023/07/08 08:16:04;;;;;;;7.28;3.55;;;;;;;21.13;69.25;101650.78;5019738;28;20236;-83
2023/07/08 08:18:30;;;;;;;14.90;4.55;;;;;;;21.19;69.31;101651.22;5017703;28;20366;-84
2023/07/08 08:20:56;;;;;;;6.18;3.50;;;;;;;21.27;68.30;101647.97;4999712;28;20034;-84
2023/07/08 08:23:22;;;;;;;6.30;3.72;;;;;;;21.36;67.94;101652.63;5017905;28;20068;-83
2023/07/08 08:25:47;;;;;;;3.28;3.05;;;;;;;21.42;67.81;101651.31;5021927;28;20057;-84
2023/07/08 08:28:13;;;;;;;5.90;3.53;;;;;;;21.46;67.52;101647.50;5008228;28;20037;-83
2023/07/08 08:30:38;;;;;;;6.82;4.22;;;;;;;21.53;68.19;101647.91;4994514;28;20034;-84
2023/07/08 08:33:04;;;;;;;12.20;3.78;;;;;;;21.60;67.94;101655.31;5016182;28;20206;-83
2023/07/08 08:35:29;;;;;;;5.13;4.25;;;;;;;21.66;67.95;101651.34;5017905;28;20037;-83
2023/07/08 08:37:55;;;;;;;5.32;4.30;;;;;;;21.75;66.95;101645.31;5020752;28;20041;-83
2023/07/08 08:40:20;;;;;;;5.85;3.88;;;;;;;21.83;66.60;101658.94;5017397;28;20037;-83
2023/07/08 08:42:51;;;;;;;3.75;3.45;;;;;;;21.86;66.78;101647.16;5020286;28;20037;-84
2023/07/08 08:45:20;;;;;;;7.18;4.15;;;;;;;21.93;66.57;101650.22;5012187;28;20033;-83
2023/07/08 08:47:49;;;;;;;5.25;4.22;;;;;;;21.98;66.80;101640.91;5012553;28;20089;-83
2023/07/08 08:50:39;;;;;;;4.63;4.10;;;;;;;22.07;65.33;101642.03;5012472;28;20046;-83
2023/07/08 08:53:11;;;;;;;7.30;4.57;;;;;;;22.10;65.35;101639.09;5012173;28;20034;-83
2023/07/08 08:55:37;;;;;;;4.90;4.40;;;;;;;22.21;66.02;101646.28;5014767;28;20036;-84
2023/07/08 08:58:29;;;;;;;6.78;4.57;;;;;;;22.34;65.44;101647.06;4999787;28;20069;-83
2023/07/08 09:01:04;;;;;;;4.18;3.78;;;;;;;22.38;65.35;101637.84;5011677;28;20040;-84
2023/07/08 09:03:42;;;;;;;6.30;4.85;;;;;;;22.45;65.13;101640.03;5009839;28;20037;-83
2023/07/08 09:06:27;;;;;;;4.05;3.75;;;;;;;22.47;65.32;101632.78;5002488;28;20071;-83
2023/07/08 09:08:55;;;;;;;5.88;4.40;;;;;;;22.53;65.85;101635.81;5013815;28;20131;-83
2023/07/08 09:11:48;;;;;;;11.98;4.88;;;;;;;22.64;65.26;101642.97;5013620;28;20061;-82
2023/07/08 09:14:18;;;;;;;4.70;4.30;;;;;;;22.73;64.92;101636.88;4997429;28;20256;-83
2023/07/08 09:16:56;;;;;;;7.30;4.70;;;;;;;22.80;64.49;101643.44;5012749;28;20042;-83
2023/07/08 09:19:26;;;;;;;6.63;4.40;;;;;;;22.88;64.87;101655.31;5010893;28;20034;-83
2023/07/08 09:22:00;;;;;;;6.32;4.30;;;;;;;22.92;64.64;101654.97;5009232;28;20045;-82
2023/07/08 09:24:43;;;;;;;4.75;4.25;;;;;;;22.99;64.17;101655.31;5010234;28;20041;-83
2023/07/08 09:27:08;;;;;;;6.50;5.00;;;;;;;23.10;64.14;101657.16;5013967;28;20034;-83
2023/07/08 09:29:34;;;;;;;5.47;4.85;;;;;;;23.15;63.76;101657.63;5011103;28;20371;-83
2023/07/08 09:32:11;;;;;;;7.28;4.90;;;;;;;23.23;63.35;101655.19;5011267;28;20053;-83
2023/07/08 09:34:42;;;;;;;4.68;4.13;;;;;;;23.28;63.22;101652.13;4987293;28;20026;-83
2023/07/08 09:37:28;;;;;;;9.45;4.90;;;;;;;23.34;63.66;101655.16;5010459;28;20217;-83
2023/07/08 09:39:56;;;;;;;8.70;5.00;;;;;;;23.43;63.41;101652.69;5010129;28;20044;-83
2023/07/08 09:42:26;;;;;;;8.77;5.80;;;;;;;23.52;62.84;101646.56;5011474;28;20042;-83
2023/07/08 09:45:03;;;;;;;6.03;5.50;;;;;;;23.60;62.86;101645.97;5012367;28;20034;-83
2023/07/08 09:47:34;;;;;;;4.85;4.45;;;;;;;23.66;62.00;101640.94;5010092;28;20364;-83
2023/07/08 09:50:00;;;;;;;4.80;3.92;;;;;;;23.73;62.62;101643.94;5016080;28;20034;-83
2023/07/08 09:52:29;;;;;;;4.93;4.63;;;;;;;23.81;62.95;101641.50;5027316;28;20144;-83
2023/07/08 09:54:55;;;;;;;5.65;4.80;;;;;;;23.91;62.19;101636.25;5016135;28;20093;-83
2023/07/08 09:57:30;;;;;;;6.10;4.35;;;;;;;23.95;62.25;101633.16;5016594;28;20438;-84
2023/07/08 10:00:02;;;;;;;5.65;4.60;;;;;;;24.01;62.12;101638.97;5016603;28;20305;-84
2023/07/08 10:02:52;;;;;;;5.75;5.28;;;;;;;24.10;62.36;101640.84;5017435;28;20344;-83
2023/07/08 10:05:35;;;;;;;5.25;4.85;;;;;;;24.17;62.52;101633.16;5023027;28;20077;-83
2023/07/08 10:08:07;;;;;;;5.88;5.28;;;;;;;24.29;61.90;101635.63;5018839;28;20065;-81
2023/07/08 10:10:37;;;;;;;5.93;5.30;;;;;;;24.42;61.35;101642.59;5011606;28;20048;-83
2023/07/08 10:13:37;;;;;;;7.40;5.15;;;;;;;24.51;61.01;101642.63;5014983;28;20069;-82
2023/07/08 10:16:13;;;;;;;7.28;5.03;;;;;;;24.61;61.35;101642.69;5010481;28;20036;-83
2023/07/08 10:18:39;;;;;;;5.80;5.30;;;;;;;24.69;61.19;101642.03;5014593;28;20065;-82
2023/07/08 10:21:26;;;;;;;6.63;5.07;;;;;;;24.75;59.82;101643.31;5011448;28;20052;-82
2023/07/08 10:24:22;;;;;;;13.65;6.28;;;;;;;24.86;59.17;101651.25;5015314;28;20048;-83
2023/07/08 10:26:57;;;;;;;11.60;6.10;;;;;;;24.93;59.27;101651.56;5014995;28;20034;-82
2023/07/08 10:29:52;;;;;;;7.22;5.75;;;;;;;24.99;58.10;101654.53;5007995;28;20040;-82
2023/07/08 10:32:26;;;;;;;6.45;5.85;;;;;;;25.03;57.89;101655.09;5013846;28;20038;-83
2023/07/08 10:35:12;;;;;;;8.60;6.15;;;;;;;25.11;57.87;101660.63;5022413;28;20236;-83
2023/07/08 10:38:08;;;;;;;9.45;6.28;;;;;;;25.19;57.65;101655.41;4990203;28;20030;-84
2023/07/08 10:40:59;;;;;;;6.50;5.90;;;;;;;25.25;57.58;101657.59;5014837;28;20056;-82
2023/07/08 10:43:28;;;;;;;8.57;6.30;;;;;;;25.33;57.63;101653.38;5018320;28;20033;-82
2023/07/08 10:45:53;;;;;;;;;;;;;;;25.36;57.37;101656.63;4996174;28;20433;-83
2023/07/08 10:48:41;;;;;;;9.38;6.00;;;;;;;25.40;57.81;101654.50;5007500;28;20257;-83
2023/07/08 10:51:32;;;;;;;6.35;5.10;;;;;;;25.41;58.79;101657.06;5013604;28;20405;-83
2023/07/08 10:54:34;;;;;;;7.82;6.07;;;;;;;25.45;58.06;101653.09;5015333;28;20053;-82
2023/07/08 10:57:08;;;;;;;12.77;6.07;;;;;;;25.51;57.73;101646.31;5023928;28;20029;-82
2023/07/08 10:59:49;;;;;;;7.65;5.43;;;;;;;25.52;57.80;101655.22;5020660;28;20097;-82
2023/07/08 11:02:33;;;;;;;5.50;4.95;;;;;;;25.57;57.74;101661.84;5015983;28;20109;-83
2023/07/08 11:05:24;;;;;;;8.55;5.60;;;;;;;25.68;58.05;101659.00;5015438;28;20034;-82
2023/07/08 11:08:29;;;;;;;8.23;4.85;;;;;;;25.74;57.30;101657.63;5015203;28;20145;-83
2023/07/08 11:11:08;;;;;;;5.88;5.28;;;;;;;25.85;56.32;101656.63;4983604;28;20440;-82
2023/07/08 11:13:41;;;;;;;6.10;4.63;;;;;;;25.91;55.18;101653.38;5016195;28;20591;-83
2023/07/08 11:16:14;;;;;;;4.95;4.55;;;;;;;25.90;55.71;101653.50;5012286;28;20061;-82
2023/07/08 11:18:46;;;;;;;5.90;5.40;;;;;;;25.91;56.44;101647.16;5001825;28;20232;-83
2023/07/08 11:21:21;;;;;;;4.68;4.28;;;;;;;25.88;56.75;101647.44;5015371;28;20041;-83
2023/07/08 11:23:52;;;;;;;8.48;5.60;;;;;;;25.91;57.31;101644.47;5015228;28;20113;-83
2023/07/08 11:26:17;;;;;;;6.85;5.70;;;;;;;25.98;56.09;101641.09;5012580;28;20320;-83
2023/07/08 11:28:43;;;;;;;5.60;5.10;;;;;;;26.04;55.17;101647.72;5013917;28;20033;-83
2023/07/08 11:31:10;;;;;;;6.50;5.20;;;;;;;26.08;53.63;101638.38;5016143;28;20623;-83
2023/07/08 11:33:36;;;;;;;6.60;5.50;;;;;;;26.13;54.08;101640.66;5019003;28;20399;-83